sensor_id;sensor_type;location;lat;lon;timestamp;temperature;humidity
5346;DHT22;2695;49.444;11.054;2022-10-16T00:00:58;16.00;99.90
5346;DHT22;2695;49.444;11.054;2022-10-16T00:03:26;16.00;99.90
5346;DHT22;2695;49.444;11.054;2022-10-16T00:05:59;15.90;99.90
5346;DHT22;2695;49.444;11.054;2022-10-16T00:08:28;15.90;99.90
5346;DHT22;2695;49.444;11.054;2022-10-16T00:11:02;15.90;99.90
5346;DHT22;2695;49.444;11.054;2022-10-16T00:13:30;16.00;99.90
5346;DHT22;2695;49.444;11.054;2022-10-16T00:16:00;15.90;99.90
5346;DHT22;2695;49.444;11.054;2022-10-16T00:18:28;15.90;99.90
5346;DHT22;2695;49.444;11.054;2022-10-16T00:21:02;16.00;99.90
5346;DHT22;2695;49.444;11.054;2022-10-16T00:23:30;16.00;99.90
5346;DHT22;2695;49.444;11.054;2022-10-16T00:26:03;16.00;99.90
5346;DHT22;2695;49.444;11.054;2022-10-16T00:28:32;16.00;99.90
5346;DHT22;2695;49.444;11.054;2022-10-16T00:31:03;16.00;99.90
5346;DHT22;2695;49.444;11.054;2022-10-16T00:33:31;16.00;99.90
5346;DHT22;2695;49.444;11.054;2022-10-16T00:35:59;16.10;99.90
5346;DHT22;2695;49.444;11.054;2022-10-16T00:38:27;16.10;99.90
5346;DHT22;2695;49.444;11.054;2022-10-16T00:40:55;16.10;99.90
5346;DHT22;2695;49.444;11.054;2022-10-16T00:43:37;16.00;99.90
5346;DHT22;2695;49.444;11.054;2022-10-16T00:46:11;16.10;99.90
5346;DHT22;2695;49.444;11.054;2022-10-16T00:48:41;16.00;99.90
5346;DHT22;2695;49.444;11.054;2022-10-16T00:51:10;16.00;99.90
5346;DHT22;2695;49.444;11.054;2022-10-16T00:53:38;16.00;99.90
5346;DHT22;2695;49.444;11.054;2022-10-16T00:56:06;16.00;99.90
5346;DHT22;2695;49.444;11.054;2022-10-16T00:58:36;15.90;99.90
5346;DHT22;2695;49.444;11.054;2022-10-16T01:01:04;15.90;99.90
5346;DHT22;2695;49.444;11.054;2022-10-16T01:03:34;15.90;99.90
5346;DHT22;2695;49.444;11.054;2022-10-16T01:06:11;15.90;99.90
5346;DHT22;2695;49.444;11.054;2022-10-16T01:08:50;15.90;99.90
5346;DHT22;2695;49.444;11.054;2022-10-16T01:11:27;15.80;99.90
5346;DHT22;2695;49.444;11.054;2022-10-16T01:14:02;15.80;99.90
5346;DHT22;2695;49.444;11.054;2022-10-16T01:16:37;15.80;99.90
5346;DHT22;2695;49.444;11.054;2022-10-16T01:19:12;15.70;99.90
5346;DHT22;2695;49.444;11.054;2022-10-16T01:21:43;15.80;99.90
5346;DHT22;2695;49.444;11.054;2022-10-16T01:24:18;15.80;99.90
5346;DHT22;2695;49.444;11.054;2022-10-16T01:27:05;15.80;99.90
5346;DHT22;2695;49.444;11.054;2022-10-16T01:29:36;15.80;99.90
5346;DHT22;2695;49.444;11.054;2022-10-16T01:32:11;15.80;99.90
5346;DHT22;2695;49.444;11.054;2022-10-16T01:34:47;15.80;99.90
5346;DHT22;2695;49.444;11.054;2022-10-16T01:37:21;15.80;99.90
5346;DHT22;2695;49.444;11.054;2022-10-16T01:39:53;15.80;99.90
5346;DHT22;2695;49.444;11.054;2022-10-16T01:42:29;15.70;99.90
5346;DHT22;2695;49.444;11.054;2022-10-16T01:44:59;15.70;99.90
5346;DHT22;2695;49.444;11.054;2022-10-16T01:47:30;15.70;99.90
5346;DHT22;2695;49.444;11.054;2022-10-16T01:50:00;15.80;99.90
5346;DHT22;2695;49.444;11.054;2022-10-16T01:52:32;15.80;99.90
5346;DHT22;2695;49.444;11.054;2022-10-16T01:55:04;15.80;99.90
5346;DHT22;2695;49.444;11.054;2022-10-16T01:57:36;15.80;99.90
5346;DHT22;2695;49.444;11.054;2022-10-16T02:00:12;15.80;99.90
5346;DHT22;2695;49.444;11.054;2022-10-16T02:02:43;15.80;99.90
5346;DHT22;2695;49.444;11.054;2022-10-16T02:05:18;15.80;99.90
5346;DHT22;2695;49.444;11.054;2022-10-16T02:07:48;15.80;99.90
5346;DHT22;2695;49.444;11.054;2022-10-16T02:10:20;15.90;99.90
5346;DHT22;2695;49.444;11.054;2022-10-16T02:12:57;15.80;99.90
5346;DHT22;2695;49.444;11.054;2022-10-16T02:15:26;15.80;99.90
5346;DHT22;2695;49.444;11.054;2022-10-16T02:17:55;15.80;99.90
5346;DHT22;2695;49.444;11.054;2022-10-16T02:20:26;15.80;99.90
5346;DHT22;2695;49.444;11.054;2022-10-16T02:22:56;15.80;99.90
5346;DHT22;2695;49.444;11.054;2022-10-16T02:25:30;15.80;99.90
5346;DHT22;2695;49.444;11.054;2022-10-16T02:28:11;15.80;99.90
5346;DHT22;2695;49.444;11.054;2022-10-16T02:30:54;15.80;99.90
5346;DHT22;2695;49.444;11.054;2022-10-16T02:33:26;15.80;99.90
5346;DHT22;2695;49.444;11.054;2022-10-16T02:35:58;15.80;99.90
5346;DHT22;2695;49.444;11.054;2022-10-16T02:38:27;15.80;99.90
5346;DHT22;2695;49.444;11.054;2022-10-16T02:41:04;15.70;99.90
5346;DHT22;2695;49.444;11.054;2022-10-16T02:43:36;15.70;99.90
5346;DHT22;2695;49.444;11.054;2022-10-16T02:46:05;15.70;99.90
5346;DHT22;2695;49.444;11.054;2022-10-16T02:48:33;15.70;99.90
5346;DHT22;2695;49.444;11.054;2022-10-16T02:51:01;15.70;99.90
5346;DHT22;2695;49.444;11.054;2022-10-16T02:53:32;15.70;99.90
5346;DHT22;2695;49.444;11.054;2022-10-16T02:56:06;15.70;99.90
5346;DHT22;2695;49.444;11.054;2022-10-16T02:58:36;15.70;99.90
5346;DHT22;2695;49.444;11.054;2022-10-16T03:01:04;15.60;99.90
5346;DHT22;2695;49.444;11.054;2022-10-16T03:03:34;15.70;99.90
5346;DHT22;2695;49.444;11.054;2022-10-16T03:06:05;15.50;99.90
5346;DHT22;2695;49.444;11.054;2022-10-16T03:08:44;15.50;99.90
5346;DHT22;2695;49.444;11.054;2022-10-16T03:11:12;15.50;99.90
5346;DHT22;2695;49.444;11.054;2022-10-16T03:13:44;15.50;99.90
5346;DHT22;2695;49.444;11.054;2022-10-16T03:16:12;15.40;99.90
5346;DHT22;2695;49.444;11.054;2022-10-16T03:18:41;15.40;99.90
5346;DHT22;2695;49.444;11.054;2022-10-16T03:21:09;15.40;99.90
5346;DHT22;2695;49.444;11.054;2022-10-16T03:23:37;15.40;99.90
5346;DHT22;2695;49.444;11.054;2022-10-16T03:26:05;15.50;99.90
5346;DHT22;2695;49.444;11.054;2022-10-16T03:28:33;15.50;99.90
5346;DHT22;2695;49.444;11.054;2022-10-16T03:31:03;15.40;99.90
5346;DHT22;2695;49.444;11.054;2022-10-16T03:33:32;15.40;99.90
5346;DHT22;2695;49.444;11.054;2022-10-16T03:36:00;15.40;99.90
5346;DHT22;2695;49.444;11.054;2022-10-16T03:38:31;15.40;99.90
5346;DHT22;2695;49.444;11.054;2022-10-16T03:40:59;15.40;99.90
5346;DHT22;2695;49.444;11.054;2022-10-16T03:43:31;15.30;99.90
5346;DHT22;2695;49.444;11.054;2022-10-16T03:45:59;15.30;99.90
5346;DHT22;2695;49.444;11.054;2022-10-16T03:48:29;15.30;99.90
5346;DHT22;2695;49.444;11.054;2022-10-16T03:50:59;15.30;99.90
5346;DHT22;2695;49.444;11.054;2022-10-16T03:53:27;15.30;99.90
5346;DHT22;2695;49.444;11.054;2022-10-16T03:55:55;15.30;99.90
5346;DHT22;2695;49.444;11.054;2022-10-16T03:58:23;15.40;99.90
5346;DHT22;2695;49.444;11.054;2022-10-16T04:00:52;15.40;99.90
5346;DHT22;2695;49.444;11.054;2022-10-16T04:03:22;15.40;99.90
5346;DHT22;2695;49.444;11.054;2022-10-16T04:05:52;15.40;99.90
5346;DHT22;2695;49.444;11.054;2022-10-16T04:08:21;15.40;99.90
5346;DHT22;2695;49.444;11.054;2022-10-16T04:10:55;15.40;99.90
5346;DHT22;2695;49.444;11.054;2022-10-16T04:13:26;15.40;99.90
5346;DHT22;2695;49.444;11.054;2022-10-16T04:15:54;15.40;99.90
5346;DHT22;2695;49.444;11.054;2022-10-16T04:18:23;15.40;99.90
5346;DHT22;2695;49.444;11.054;2022-10-16T04:21:02;15.50;99.90
5346;DHT22;2695;49.444;11.054;2022-10-16T04:23:35;15.40;99.90
5346;DHT22;2695;49.444;11.054;2022-10-16T04:26:05;15.40;99.90
5346;DHT22;2695;49.444;11.054;2022-10-16T04:28:36;15.40;99.90
5346;DHT22;2695;49.444;11.054;2022-10-16T04:31:05;15.40;99.90
5346;DHT22;2695;49.444;11.054;2022-10-16T04:33:33;15.30;99.90
5346;DHT22;2695;49.444;11.054;2022-10-16T04:36:17;15.30;99.90
5346;DHT22;2695;49.444;11.054;2022-10-16T04:38:57;15.30;99.90
5346;DHT22;2695;49.444;11.054;2022-10-16T04:41:26;15.30;99.90
5346;DHT22;2695;49.444;11.054;2022-10-16T04:43:54;15.20;99.90
5346;DHT22;2695;49.444;11.054;2022-10-16T04:46:22;15.30;99.90
5346;DHT22;2695;49.444;11.054;2022-10-16T04:48:52;15.30;99.90
5346;DHT22;2695;49.444;11.054;2022-10-16T04:51:22;15.30;99.90
5346;DHT22;2695;49.444;11.054;2022-10-16T04:53:50;15.20;99.90
5346;DHT22;2695;49.444;11.054;2022-10-16T04:56:24;15.20;99.90
5346;DHT22;2695;49.444;11.054;2022-10-16T04:58:53;15.30;99.90
5346;DHT22;2695;49.444;11.054;2022-10-16T05:01:23;15.30;99.90
5346;DHT22;2695;49.444;11.054;2022-10-16T05:03:52;15.20;99.90
5346;DHT22;2695;49.444;11.054;2022-10-16T05:06:21;15.20;99.90
5346;DHT22;2695;49.444;11.054;2022-10-16T05:08:51;15.20;99.90
5346;DHT22;2695;49.444;11.054;2022-10-16T05:11:19;15.20;99.90
5346;DHT22;2695;49.444;11.054;2022-10-16T05:13:50;15.10;99.90
5346;DHT22;2695;49.444;11.054;2022-10-16T05:16:24;15.20;99.90
5346;DHT22;2695;49.444;11.054;2022-10-16T05:18:54;15.10;99.90
5346;DHT22;2695;49.444;11.054;2022-10-16T05:21:55;15.10;99.90
5346;DHT22;2695;49.444;11.054;2022-10-16T05:24:26;15.10;99.90
5346;DHT22;2695;49.444;11.054;2022-10-16T05:27:04;15.10;99.90
5346;DHT22;2695;49.444;11.054;2022-10-16T05:29:52;15.10;99.90
5346;DHT22;2695;49.444;11.054;2022-10-16T05:32:26;15.00;99.90
5346;DHT22;2695;49.444;11.054;2022-10-16T05:34:55;15.00;99.90
5346;DHT22;2695;49.444;11.054;2022-10-16T05:37:28;15.00;99.90
5346;DHT22;2695;49.444;11.054;2022-10-16T05:39:57;15.10;99.90
5346;DHT22;2695;49.444;11.054;2022-10-16T05:42:25;15.10;99.90
5346;DHT22;2695;49.444;11.054;2022-10-16T05:44:57;15.20;99.90
5346;DHT22;2695;49.444;11.054;2022-10-16T05:47:25;15.20;99.90
5346;DHT22;2695;49.444;11.054;2022-10-16T05:49:57;15.20;99.90
5346;DHT22;2695;49.444;11.054;2022-10-16T06:00:39;15.30;99.90
5346;DHT22;2695;49.444;11.054;2022-10-16T06:03:47;15.40;99.90
5346;DHT22;2695;49.444;11.054;2022-10-16T06:06:27;15.40;99.90
5346;DHT22;2695;49.444;11.054;2022-10-16T06:09:11;15.50;99.90
5346;DHT22;2695;49.444;11.054;2022-10-16T06:12:16;15.60;99.90
5346;DHT22;2695;49.444;11.054;2022-10-16T06:15:25;15.60;99.90
5346;DHT22;2695;49.444;11.054;2022-10-16T06:18:27;15.60;99.90
5346;DHT22;2695;49.444;11.054;2022-10-16T06:21:13;15.70;99.90
5346;DHT22;2695;49.444;11.054;2022-10-16T06:23:49;15.80;99.90
5346;DHT22;2695;49.444;11.054;2022-10-16T06:26:36;16.00;99.90
5346;DHT22;2695;49.444;11.054;2022-10-16T06:29:35;16.30;99.90
5346;DHT22;2695;49.444;11.054;2022-10-16T06:32:07;17.30;99.90
5346;DHT22;2695;49.444;11.054;2022-10-16T06:34:36;18.70;99.90
5346;DHT22;2695;49.444;11.054;2022-10-16T06:37:36;19.80;99.90
5346;DHT22;2695;49.444;11.054;2022-10-16T06:40:10;20.10;99.90
5346;DHT22;2695;49.444;11.054;2022-10-16T06:43:05;19.70;99.90
5346;DHT22;2695;49.444;11.054;2022-10-16T06:45:56;19.40;99.90
5346;DHT22;2695;49.444;11.054;2022-10-16T06:51:56;20.30;99.90
5346;DHT22;2695;49.444;11.054;2022-10-16T06:54:26;19.80;99.90
5346;DHT22;2695;49.444;11.054;2022-10-16T07:00:36;18.40;99.90
5346;DHT22;2695;49.444;11.054;2022-10-16T07:06:35;17.50;99.90
5346;DHT22;2695;49.444;11.054;2022-10-16T07:09:39;17.20;99.90
5346;DHT22;2695;49.444;11.054;2022-10-16T07:13:23;17.10;99.90
5346;DHT22;2695;49.444;11.054;2022-10-16T07:21:02;16.70;99.90
5346;DHT22;2695;49.444;11.054;2022-10-16T07:23:08;16.80;99.90
5346;DHT22;2695;49.444;11.054;2022-10-16T07:32:57;16.70;99.90
5346;DHT22;2695;49.444;11.054;2022-10-16T07:36:20;16.60;99.90
5346;DHT22;2695;49.444;11.054;2022-10-16T07:39:25;16.60;99.90
5346;DHT22;2695;49.444;11.054;2022-10-16T07:42:17;16.60;99.90
5346;DHT22;2695;49.444;11.054;2022-10-16T07:45:28;16.60;99.90
5346;DHT22;2695;49.444;11.054;2022-10-16T07:48:07;16.70;99.90
5346;DHT22;2695;49.444;11.054;2022-10-16T07:52:56;16.70;99.90
5346;DHT22;2695;49.444;11.054;2022-10-16T07:54:27;16.80;99.90
5346;DHT22;2695;49.444;11.054;2022-10-16T07:56:56;16.70;99.90
5346;DHT22;2695;49.444;11.054;2022-10-16T07:59:38;16.90;99.90
5346;DHT22;2695;49.444;11.054;2022-10-16T08:02:37;16.90;99.90
5346;DHT22;2695;49.444;11.054;2022-10-16T08:05:42;16.90;99.90
5346;DHT22;2695;49.444;11.054;2022-10-16T08:08:44;17.20;99.90
5346;DHT22;2695;49.444;11.054;2022-10-16T08:11:36;17.20;99.90
5346;DHT22;2695;49.444;11.054;2022-10-16T08:18:16;17.30;99.90
5346;DHT22;2695;49.444;11.054;2022-10-16T08:20:55;17.40;99.90
5346;DHT22;2695;49.444;11.054;2022-10-16T08:23:57;17.40;99.90
5346;DHT22;2695;49.444;11.054;2022-10-16T08:26:47;17.50;99.90
5346;DHT22;2695;49.444;11.054;2022-10-16T08:29:48;17.40;99.90
5346;DHT22;2695;49.444;11.054;2022-10-16T08:32:28;17.50;99.90
5346;DHT22;2695;49.444;11.054;2022-10-16T08:35:17;17.60;99.90
5346;DHT22;2695;49.444;11.054;2022-10-16T08:38:17;17.80;99.90
5346;DHT22;2695;49.444;11.054;2022-10-16T08:42:10;18.00;99.90
5346;DHT22;2695;49.444;11.054;2022-10-16T08:45:45;18.20;99.90
5346;DHT22;2695;49.444;11.054;2022-10-16T08:50:35;18.50;99.90
5346;DHT22;2695;49.444;11.054;2022-10-16T08:52:47;18.60;99.90
5346;DHT22;2695;49.444;11.054;2022-10-16T09:02:56;19.40;99.90
5346;DHT22;2695;49.444;11.054;2022-10-16T09:06:12;19.60;99.90
5346;DHT22;2695;49.444;11.054;2022-10-16T09:17:20;20.60;99.90
5346;DHT22;2695;49.444;11.054;2022-10-16T09:25:16;20.70;99.90
5346;DHT22;2695;49.444;11.054;2022-10-16T09:27:16;20.90;99.90
5346;DHT22;2695;49.444;11.054;2022-10-16T09:37:32;20.20;99.90
5346;DHT22;2695;49.444;11.054;2022-10-16T09:41:19;19.80;99.90
5346;DHT22;2695;49.444;11.054;2022-10-16T09:45:02;19.40;99.90
5346;DHT22;2695;49.444;11.054;2022-10-16T09:47:54;19.00;99.90
5346;DHT22;2695;49.444;11.054;2022-10-16T09:51:03;18.70;99.90
5346;DHT22;2695;49.444;11.054;2022-10-16T09:54:48;18.50;99.90
5346;DHT22;2695;49.444;11.054;2022-10-16T09:57:48;18.40;99.90
5346;DHT22;2695;49.444;11.054;2022-10-16T10:00:48;18.30;99.90
5346;DHT22;2695;49.444;11.054;2022-10-16T10:11:21;18.80;99.90
5346;DHT22;2695;49.444;11.054;2022-10-16T10:14:58;19.20;99.90
5346;DHT22;2695;49.444;11.054;2022-10-16T10:21:48;20.10;99.90
5346;DHT22;2695;49.444;11.054;2022-10-16T10:35:28;21.30;99.90
5346;DHT22;2695;49.444;11.054;2022-10-16T10:46:28;21.40;99.90
5346;DHT22;2695;49.444;11.054;2022-10-16T10:53:21;21.60;99.90
5346;DHT22;2695;49.444;11.054;2022-10-16T10:57:08;22.00;99.90
5346;DHT22;2695;49.444;11.054;2022-10-16T11:00:57;22.20;99.90
5346;DHT22;2695;49.444;11.054;2022-10-16T11:06:29;22.10;99.90
5346;DHT22;2695;49.444;11.054;2022-10-16T11:22:51;21.40;99.90
5346;DHT22;2695;49.444;11.054;2022-10-16T11:27:47;21.50;99.90
5346;DHT22;2695;49.444;11.054;2022-10-16T11:37:56;21.80;99.90
5346;DHT22;2695;49.444;11.054;2022-10-16T11:41:50;21.80;99.90
5346;DHT22;2695;49.444;11.054;2022-10-16T11:45:00;21.90;99.90
5346;DHT22;2695;49.444;11.054;2022-10-16T11:48:45;21.90;99.90
5346;DHT22;2695;49.444;11.054;2022-10-16T11:59:27;23.70;99.90
5346;DHT22;2695;49.444;11.054;2022-10-16T12:02:59;23.90;99.90
5346;DHT22;2695;49.444;11.054;2022-10-16T12:14:21;23.90;99.90
5346;DHT22;2695;49.444;11.054;2022-10-16T12:21:20;23.00;99.90
5346;DHT22;2695;49.444;11.054;2022-10-16T12:28:18;22.90;99.90
5346;DHT22;2695;49.444;11.054;2022-10-16T12:31:57;22.50;99.90
5346;DHT22;2695;49.444;11.054;2022-10-16T12:38:37;21.80;99.90
5346;DHT22;2695;49.444;11.054;2022-10-16T12:55:26;22.40;99.90
5346;DHT22;2695;49.444;11.054;2022-10-16T13:01:42;22.40;99.90
5346;DHT22;2695;49.444;11.054;2022-10-16T13:04:44;22.40;99.90
5346;DHT22;2695;49.444;11.054;2022-10-16T13:07:26;22.40;99.90
5346;DHT22;2695;49.444;11.054;2022-10-16T13:10:07;22.40;99.90
5346;DHT22;2695;49.444;11.054;2022-10-16T13:12:54;22.50;99.90
5346;DHT22;2695;49.444;11.054;2022-10-16T13:15:38;22.60;99.90
5346;DHT22;2695;49.444;11.054;2022-10-16T13:18:15;22.80;99.90
5346;DHT22;2695;49.444;11.054;2022-10-16T13:21:08;22.80;99.90
5346;DHT22;2695;49.444;11.054;2022-10-16T13:23:46;22.80;99.90
5346;DHT22;2695;49.444;11.054;2022-10-16T13:26:23;22.70;99.90
5346;DHT22;2695;49.444;11.054;2022-10-16T13:28:59;22.70;99.90
5346;DHT22;2695;49.444;11.054;2022-10-16T13:31:28;22.50;99.90
5346;DHT22;2695;49.444;11.054;2022-10-16T13:33:59;22.30;99.90
5346;DHT22;2695;49.444;11.054;2022-10-16T13:36:29;22.20;99.90
5346;DHT22;2695;49.444;11.054;2022-10-16T13:39:10;22.10;99.90
5346;DHT22;2695;49.444;11.054;2022-10-16T13:41:39;22.00;99.90
5346;DHT22;2695;49.444;11.054;2022-10-16T13:44:33;21.90;99.90
5346;DHT22;2695;49.444;11.054;2022-10-16T13:48:17;21.90;99.90
5346;DHT22;2695;49.444;11.054;2022-10-16T13:54:41;22.20;99.90
5346;DHT22;2695;49.444;11.054;2022-10-16T13:57:13;22.20;99.90
5346;DHT22;2695;49.444;11.054;2022-10-16T13:59:55;22.10;99.90
5346;DHT22;2695;49.444;11.054;2022-10-16T14:02:43;22.00;99.90
5346;DHT22;2695;49.444;11.054;2022-10-16T14:05:18;21.90;99.90
5346;DHT22;2695;49.444;11.054;2022-10-16T14:07:49;21.80;99.90
5346;DHT22;2695;49.444;11.054;2022-10-16T14:10:22;21.80;99.90
5346;DHT22;2695;49.444;11.054;2022-10-16T14:12:59;21.70;99.90
5346;DHT22;2695;49.444;11.054;2022-10-16T14:15:31;21.70;99.90
5346;DHT22;2695;49.444;11.054;2022-10-16T14:18:01;21.70;99.90
5346;DHT22;2695;49.444;11.054;2022-10-16T14:21:03;21.60;99.90
5346;DHT22;2695;49.444;11.054;2022-10-16T14:23:35;21.50;99.90
5346;DHT22;2695;49.444;11.054;2022-10-16T14:26:18;21.50;99.90
5346;DHT22;2695;49.444;11.054;2022-10-16T14:29:00;21.50;99.90
5346;DHT22;2695;49.444;11.054;2022-10-16T14:31:32;21.50;99.90
5346;DHT22;2695;49.444;11.054;2022-10-16T14:34:04;21.50;99.90
5346;DHT22;2695;49.444;11.054;2022-10-16T14:36:34;21.50;99.90
5346;DHT22;2695;49.444;11.054;2022-10-16T14:39:04;21.40;99.90
5346;DHT22;2695;49.444;11.054;2022-10-16T14:41:43;21.40;99.90
5346;DHT22;2695;49.444;11.054;2022-10-16T14:44:14;21.30;99.90
5346;DHT22;2695;49.444;11.054;2022-10-16T14:46:45;21.20;99.90
5346;DHT22;2695;49.444;11.054;2022-10-16T14:49:16;21.10;99.90
5346;DHT22;2695;49.444;11.054;2022-10-16T14:51:48;21.10;99.90
5346;DHT22;2695;49.444;11.054;2022-10-16T14:54:18;21.20;99.90
5346;DHT22;2695;49.444;11.054;2022-10-16T14:56:48;21.20;99.90
5346;DHT22;2695;49.444;11.054;2022-10-16T14:59:19;21.30;99.90
5346;DHT22;2695;49.444;11.054;2022-10-16T15:01:51;21.30;99.90
5346;DHT22;2695;49.444;11.054;2022-10-16T15:04:20;21.30;99.90
5346;DHT22;2695;49.444;11.054;2022-10-16T15:06:48;21.30;99.90
5346;DHT22;2695;49.444;11.054;2022-10-16T15:09:16;21.40;99.90
5346;DHT22;2695;49.444;11.054;2022-10-16T15:11:45;21.40;99.90
5346;DHT22;2695;49.444;11.054;2022-10-16T15:14:15;21.40;99.90
5346;DHT22;2695;49.444;11.054;2022-10-16T15:16:44;21.40;99.90
5346;DHT22;2695;49.444;11.054;2022-10-16T15:19:15;21.40;99.90
5346;DHT22;2695;49.444;11.054;2022-10-16T15:21:44;21.40;99.90
5346;DHT22;2695;49.444;11.054;2022-10-16T15:24:13;21.30;99.90
5346;DHT22;2695;49.444;11.054;2022-10-16T15:26:47;21.30;99.90
5346;DHT22;2695;49.444;11.054;2022-10-16T15:29:16;21.30;99.90
5346;DHT22;2695;49.444;11.054;2022-10-16T15:31:45;21.10;99.90
5346;DHT22;2695;49.444;11.054;2022-10-16T15:34:18;21.10;99.90
5346;DHT22;2695;49.444;11.054;2022-10-16T15:36:47;21.00;99.90
5346;DHT22;2695;49.444;11.054;2022-10-16T15:39:16;21.00;99.90
5346;DHT22;2695;49.444;11.054;2022-10-16T15:41:46;21.00;99.90
5346;DHT22;2695;49.444;11.054;2022-10-16T15:44:18;20.90;99.90
5346;DHT22;2695;49.444;11.054;2022-10-16T15:46:47;20.90;99.90
5346;DHT22;2695;49.444;11.054;2022-10-16T15:49:17;20.90;99.90
5346;DHT22;2695;49.444;11.054;2022-10-16T15:51:45;20.90;99.90
5346;DHT22;2695;49.444;11.054;2022-10-16T15:54:14;20.90;99.90
5346;DHT22;2695;49.444;11.054;2022-10-16T15:56:42;20.80;99.90
5346;DHT22;2695;49.444;11.054;2022-10-16T15:59:12;20.70;99.90
5346;DHT22;2695;49.444;11.054;2022-10-16T16:01:41;20.70;99.90
5346;DHT22;2695;49.444;11.054;2022-10-16T16:04:09;20.70;99.90
5346;DHT22;2695;49.444;11.054;2022-10-16T16:07:00;20.70;99.90
5346;DHT22;2695;49.444;11.054;2022-10-16T16:09:29;20.60;99.90
5346;DHT22;2695;49.444;11.054;2022-10-16T16:11:58;20.60;99.90
5346;DHT22;2695;49.444;11.054;2022-10-16T16:14:31;20.50;99.90
5346;DHT22;2695;49.444;11.054;2022-10-16T16:17:00;20.40;99.90
5346;DHT22;2695;49.444;11.054;2022-10-16T16:19:30;20.40;99.90
5346;DHT22;2695;49.444;11.054;2022-10-16T16:22:00;20.40;99.90
5346;DHT22;2695;49.444;11.054;2022-10-16T16:24:29;20.40;99.90
5346;DHT22;2695;49.444;11.054;2022-10-16T16:26:57;20.40;99.90
5346;DHT22;2695;49.444;11.054;2022-10-16T16:29:25;20.40;99.90
5346;DHT22;2695;49.444;11.054;2022-10-16T16:31:54;20.20;99.90
5346;DHT22;2695;49.444;11.054;2022-10-16T16:34:24;20.30;99.90
5346;DHT22;2695;49.444;11.054;2022-10-16T16:36:53;20.20;99.90
5346;DHT22;2695;49.444;11.054;2022-10-16T16:39:23;20.20;99.90
5346;DHT22;2695;49.444;11.054;2022-10-16T16:41:52;20.10;99.90
5346;DHT22;2695;49.444;11.054;2022-10-16T16:44:20;20.10;99.90
5346;DHT22;2695;49.444;11.054;2022-10-16T16:46:48;20.00;99.90
5346;DHT22;2695;49.444;11.054;2022-10-16T16:49:20;20.00;99.90
5346;DHT22;2695;49.444;11.054;2022-10-16T16:51:48;20.00;99.90
5346;DHT22;2695;49.444;11.054;2022-10-16T16:54:17;19.90;99.90
5346;DHT22;2695;49.444;11.054;2022-10-16T16:56:46;20.00;99.90
5346;DHT22;2695;49.444;11.054;2022-10-16T16:59:17;20.00;99.90
5346;DHT22;2695;49.444;11.054;2022-10-16T17:01:47;20.00;99.90
5346;DHT22;2695;49.444;11.054;2022-10-16T17:04:22;19.90;99.90
5346;DHT22;2695;49.444;11.054;2022-10-16T17:06:52;19.90;99.90
5346;DHT22;2695;49.444;11.054;2022-10-16T17:09:21;19.80;99.90
5346;DHT22;2695;49.444;11.054;2022-10-16T17:11:52;19.80;99.90
5346;DHT22;2695;49.444;11.054;2022-10-16T17:14:24;19.80;99.90
5346;DHT22;2695;49.444;11.054;2022-10-16T17:16:54;19.80;99.90
5346;DHT22;2695;49.444;11.054;2022-10-16T17:19:22;19.80;99.90
5346;DHT22;2695;49.444;11.054;2022-10-16T17:21:51;19.70;99.90
5346;DHT22;2695;49.444;11.054;2022-10-16T17:24:19;19.70;99.90
5346;DHT22;2695;49.444;11.054;2022-10-16T17:26:48;19.70;99.90
5346;DHT22;2695;49.444;11.054;2022-10-16T17:29:18;19.70;99.90
5346;DHT22;2695;49.444;11.054;2022-10-16T17:31:46;19.70;99.90
5346;DHT22;2695;49.444;11.054;2022-10-16T17:34:17;19.70;99.90
5346;DHT22;2695;49.444;11.054;2022-10-16T17:36:45;19.60;99.90
5346;DHT22;2695;49.444;11.054;2022-10-16T17:39:17;19.60;99.90
5346;DHT22;2695;49.444;11.054;2022-10-16T17:41:47;19.60;99.90
5346;DHT22;2695;49.444;11.054;2022-10-16T17:44:15;19.60;99.90
5346;DHT22;2695;49.444;11.054;2022-10-16T17:46:50;19.50;99.90
5346;DHT22;2695;49.444;11.054;2022-10-16T17:49:19;19.50;99.90
5346;DHT22;2695;49.444;11.054;2022-10-16T17:51:52;19.50;99.90
5346;DHT22;2695;49.444;11.054;2022-10-16T17:54:24;19.40;99.90
5346;DHT22;2695;49.444;11.054;2022-10-16T17:56:52;19.40;99.90
5346;DHT22;2695;49.444;11.054;2022-10-16T17:59:21;19.30;99.90
5346;DHT22;2695;49.444;11.054;2022-10-16T18:01:51;19.20;99.90
5346;DHT22;2695;49.444;11.054;2022-10-16T18:04:20;19.20;99.90
5346;DHT22;2695;49.444;11.054;2022-10-16T18:06:49;19.20;99.90
5346;DHT22;2695;49.444;11.054;2022-10-16T18:09:18;19.40;99.90
5346;DHT22;2695;49.444;11.054;2022-10-16T18:11:47;19.30;99.90
5346;DHT22;2695;49.444;11.054;2022-10-16T18:14:18;19.30;99.90
5346;DHT22;2695;49.444;11.054;2022-10-16T18:16:46;19.20;99.90
5346;DHT22;2695;49.444;11.054;2022-10-16T18:19:18;19.20;99.90
5346;DHT22;2695;49.444;11.054;2022-10-16T18:21:46;19.10;99.90
5346;DHT22;2695;49.444;11.054;2022-10-16T18:24:15;19.10;99.90
5346;DHT22;2695;49.444;11.054;2022-10-16T18:26:44;19.00;99.90
5346;DHT22;2695;49.444;11.054;2022-10-16T18:29:12;19.00;99.90
5346;DHT22;2695;49.444;11.054;2022-10-16T18:31:41;19.00;99.90
5346;DHT22;2695;49.444;11.054;2022-10-16T18:34:10;19.00;99.90
5346;DHT22;2695;49.444;11.054;2022-10-16T18:36:40;19.00;99.90
5346;DHT22;2695;49.444;11.054;2022-10-16T18:39:10;18.90;99.90
5346;DHT22;2695;49.444;11.054;2022-10-16T18:41:40;19.00;99.90
5346;DHT22;2695;49.444;11.054;2022-10-16T18:44:10;19.00;99.90
5346;DHT22;2695;49.444;11.054;2022-10-16T18:46:39;19.00;99.90
5346;DHT22;2695;49.444;11.054;2022-10-16T18:49:08;19.10;99.90
5346;DHT22;2695;49.444;11.054;2022-10-16T18:51:38;19.00;99.90
5346;DHT22;2695;49.444;11.054;2022-10-16T18:54:11;19.00;99.90
5346;DHT22;2695;49.444;11.054;2022-10-16T18:56:39;19.00;99.90
5346;DHT22;2695;49.444;11.054;2022-10-16T18:59:08;19.00;99.90
5346;DHT22;2695;49.444;11.054;2022-10-16T19:01:37;18.90;99.90
5346;DHT22;2695;49.444;11.054;2022-10-16T19:04:07;18.80;99.90
5346;DHT22;2695;49.444;11.054;2022-10-16T19:06:38;18.90;99.90
5346;DHT22;2695;49.444;11.054;2022-10-16T19:09:06;18.80;99.90
5346;DHT22;2695;49.444;11.054;2022-10-16T19:11:37;18.70;99.90
5346;DHT22;2695;49.444;11.054;2022-10-16T19:14:07;18.70;99.90
5346;DHT22;2695;49.444;11.054;2022-10-16T19:16:36;18.60;99.90
5346;DHT22;2695;49.444;11.054;2022-10-16T19:19:07;18.60;99.90
5346;DHT22;2695;49.444;11.054;2022-10-16T19:21:37;18.60;99.90
5346;DHT22;2695;49.444;11.054;2022-10-16T19:24:11;18.50;99.90
5346;DHT22;2695;49.444;11.054;2022-10-16T19:26:41;18.40;99.90
5346;DHT22;2695;49.444;11.054;2022-10-16T19:29:09;18.40;99.90
5346;DHT22;2695;49.444;11.054;2022-10-16T19:31:39;18.30;99.90
5346;DHT22;2695;49.444;11.054;2022-10-16T19:34:10;18.20;99.90
5346;DHT22;2695;49.444;11.054;2022-10-16T19:36:39;18.20;99.90
5346;DHT22;2695;49.444;11.054;2022-10-16T19:39:11;18.20;99.90
5346;DHT22;2695;49.444;11.054;2022-10-16T19:41:44;18.00;99.90
5346;DHT22;2695;49.444;11.054;2022-10-16T19:44:15;17.90;99.90
5346;DHT22;2695;49.444;11.054;2022-10-16T19:46:43;17.90;99.90